createdAt,value
2018-05-13T00:01:57.540Z,41.30
2018-05-13T00:04:25.010Z,31.90
2018-05-13T00:06:52.453Z,39.63
2018-05-13T00:09:19.882Z,44.23
2018-05-13T00:11:48.297Z,37.13
2018-05-13T00:17:07.926Z,41.20
2018-05-13T00:35:07.990Z,44.00
2018-05-13T00:37:39.998Z,39.83
2018-05-13T00:40:10.163Z,41.17
2018-05-13T00:42:39.631Z,42.37
2018-05-13T00:45:08.182Z,40.30
2018-05-13T00:47:39.421Z,37.13
2018-05-13T00:50:06.857Z,40.30
2018-05-13T00:52:34.306Z,39.27
2018-05-13T00:55:01.755Z,44.60
2018-05-13T00:57:29.197Z,35.10
2018-05-13T00:59:56.619Z,38.50
2018-05-13T01:02:24.089Z,40.97
2018-05-13T01:04:51.516Z,37.47
2018-05-13T01:07:18.925Z,47.30
2018-05-13T01:09:46.378Z,34.00
2018-05-13T01:12:13.810Z,39.00
2018-05-13T01:14:41.256Z,38.17
2018-05-13T01:17:08.678Z,38.97
2018-05-13T01:19:36.132Z,38.37
2018-05-13T01:22:03.574Z,36.13
2018-05-13T01:24:31.026Z,40.73
2018-05-13T01:27:00.443Z,37.07
2018-05-13T01:29:27.893Z,38.93
2018-05-13T01:31:55.316Z,40.50
2018-05-13T01:34:22.759Z,40.33
2018-05-13T01:36:50.186Z,40.17
2018-05-13T01:39:18.573Z,38.90
2018-05-13T01:41:46.011Z,34.90
2018-05-13T01:44:13.462Z,42.83
2018-05-13T01:46:40.905Z,38.80
2018-05-13T01:49:09.325Z,43.90
2018-05-13T01:51:36.809Z,37.57
2018-05-13T01:54:04.268Z,39.03
2018-05-13T01:56:31.711Z,34.77
2018-05-13T01:58:59.145Z,38.83
2018-05-13T02:01:26.613Z,45.23
2018-05-13T02:03:54.030Z,43.33
2018-05-13T02:06:23.478Z,37.10
2018-05-13T02:08:50.897Z,45.83
2018-05-13T02:11:18.352Z,43.93
2018-05-13T02:13:45.772Z,36.33
2018-05-13T02:16:13.222Z,36.20
2018-05-13T02:18:40.640Z,36.93
2018-05-13T02:21:08.100Z,38.10
2018-05-13T02:23:35.517Z,41.70
2018-05-13T02:26:02.961Z,33.83
2018-05-13T02:28:30.384Z,32.70
2018-05-13T02:30:57.842Z,37.90
2018-05-13T02:33:25.296Z,41.20
2018-05-13T02:35:52.717Z,43.03
2018-05-13T02:38:20.173Z,35.60
2018-05-13T02:40:47.598Z,33.77
2018-05-13T02:43:15.042Z,40.17
2018-05-13T02:45:42.466Z,40.63
2018-05-13T02:48:09.924Z,40.50
2018-05-13T02:50:43.945Z,40.00
2018-05-13T02:53:11.392Z,35.50
2018-05-13T02:55:38.810Z,37.50
2018-05-13T02:58:07.154Z,34.80
2018-05-13T03:00:34.584Z,36.63
2018-05-13T03:03:02.026Z,40.77
2018-05-13T03:05:29.449Z,34.90
2018-05-13T03:07:56.891Z,44.23
2018-05-13T03:10:24.308Z,36.47
2018-05-13T03:12:51.772Z,36.47
2018-05-13T03:15:19.568Z,34.10
2018-05-13T03:17:47.022Z,37.53
2018-05-13T03:20:14.450Z,39.50
2018-05-13T03:22:41.886Z,32.20
2018-05-13T03:25:09.306Z,31.93
2018-05-13T03:27:36.742Z,34.17
2018-05-13T03:30:04.198Z,36.67
2018-05-13T03:32:31.633Z,34.17
2018-05-13T03:34:59.101Z,38.97
2018-05-13T03:37:27.521Z,36.00
2018-05-13T03:39:55.926Z,39.00
2018-05-13T03:42:23.357Z,34.53
2018-05-13T03:44:50.785Z,33.80
2018-05-13T03:47:18.198Z,36.77
2018-05-13T03:49:45.649Z,33.53
2018-05-13T03:52:13.062Z,33.93
2018-05-13T03:54:44.797Z,31.03
2018-05-13T03:57:14.161Z,32.20
2018-05-13T03:59:42.545Z,38.50
2018-05-13T04:02:15.201Z,30.80
2018-05-13T04:04:42.685Z,36.70
2018-05-13T04:07:10.112Z,32.03
2018-05-13T04:09:49.284Z,35.63
2018-05-13T04:12:28.524Z,37.93
2018-05-13T04:17:58.594Z,36.23
2018-05-13T04:20:26.037Z,37.50
2018-05-13T04:22:53.458Z,38.33
2018-05-13T04:25:20.889Z,34.20
2018-05-13T04:27:48.329Z,43.50
2018-05-13T04:30:15.755Z,35.23
2018-05-13T04:32:43.210Z,38.87
2018-05-13T04:35:10.631Z,40.87
2018-05-13T04:37:38.084Z,37.50
2018-05-13T04:40:05.493Z,37.10
2018-05-13T04:42:32.948Z,35.93
2018-05-13T04:45:00.358Z,34.10
2018-05-13T04:47:27.808Z,40.77
2018-05-13T04:49:55.225Z,35.03
2018-05-13T04:52:22.751Z,30.20
2018-05-13T04:54:50.205Z,35.70
2018-05-13T04:57:17.662Z,37.00
2018-05-13T04:59:45.073Z,35.47
2018-05-13T05:02:12.496Z,32.37
2018-05-13T05:04:39.952Z,32.47
2018-05-13T05:07:07.370Z,31.60
2018-05-13T05:09:34.818Z,29.63
2018-05-13T05:12:02.238Z,31.87
2018-05-13T05:14:29.689Z,29.63
2018-05-13T05:16:57.470Z,31.47
2018-05-13T05:19:24.915Z,27.53
2018-05-13T05:21:54.347Z,29.27
2018-05-13T05:24:22.745Z,24.53
2018-05-13T05:26:56.585Z,25.93
2018-05-13T05:29:24.034Z,30.20
2018-05-13T05:31:51.451Z,29.73
2018-05-13T05:34:18.898Z,29.33
2018-05-13T05:36:46.321Z,27.03
2018-05-13T05:39:13.766Z,23.50
2018-05-13T05:41:41.183Z,31.30
2018-05-13T05:44:08.636Z,27.07
2018-05-13T05:46:37.012Z,32.10
2018-05-13T05:49:04.466Z,25.07
2018-05-13T05:51:31.891Z,23.93
2018-05-13T05:54:01.673Z,25.67
2018-05-13T05:56:30.097Z,29.90
2018-05-13T05:58:57.533Z,28.87
2018-05-13T06:01:24.990Z,23.83
2018-05-13T06:03:52.414Z,28.47
2018-05-13T06:06:20.775Z,33.63
2018-05-13T06:08:48.201Z,29.67
2018-05-13T06:11:15.661Z,31.13
2018-05-13T06:13:44.038Z,25.13
2018-05-13T06:16:11.482Z,28.83
2018-05-13T06:18:38.910Z,25.10
2018-05-13T06:21:06.358Z,24.57
2018-05-13T06:23:33.784Z,25.37
2018-05-13T06:26:01.265Z,26.90
2018-05-13T06:28:28.697Z,27.03
2018-05-13T06:30:56.208Z,31.70
2018-05-13T06:33:23.630Z,31.80
2018-05-13T06:35:51.083Z,38.77
2018-05-13T06:38:18.505Z,27.63
2018-05-13T06:40:49.802Z,35.67
2018-05-13T06:43:18.248Z,29.70
2018-05-13T06:45:45.733Z,36.40
2018-05-13T06:48:13.155Z,31.57
2018-05-13T06:50:40.579Z,27.67
2018-05-13T06:53:08.022Z,33.13
2018-05-13T06:55:35.448Z,29.63
2018-05-13T06:58:02.889Z,30.60
2018-05-13T07:00:30.323Z,29.97
2018-05-13T07:02:57.770Z,30.67
2018-05-13T07:05:25.238Z,25.40
2018-05-13T07:07:52.685Z,30.47
2018-05-13T07:10:20.104Z,25.10
2018-05-13T07:12:47.546Z,24.07
2018-05-13T07:15:14.978Z,23.03
2018-05-13T07:17:42.425Z,24.97
2018-05-13T07:20:09.853Z,23.47
2018-05-13T07:22:39.311Z,21.17
2018-05-13T07:25:06.736Z,20.30
2018-05-13T07:27:35.150Z,19.07
2018-05-13T07:30:02.572Z,18.93
2018-05-13T07:32:30.023Z,16.67
2018-05-13T07:34:57.889Z,18.53
2018-05-13T07:37:25.365Z,15.53
2018-05-13T07:39:52.786Z,17.10
2018-05-13T07:42:20.210Z,16.60
2018-05-13T07:44:49.582Z,15.97
2018-05-13T07:47:17.014Z,17.67
2018-05-13T07:49:44.466Z,18.60
2018-05-13T07:52:11.882Z,15.80
2018-05-13T07:54:39.329Z,16.40
2018-05-13T07:57:09.910Z,12.97
2018-05-13T07:59:37.371Z,14.40
2018-05-13T08:02:04.793Z,13.50
2018-05-13T08:04:32.242Z,13.10
2018-05-13T08:06:59.706Z,14.90
2018-05-13T08:09:28.165Z,15.77
2018-05-13T08:11:55.590Z,13.30
2018-05-13T08:14:25.026Z,13.17
2018-05-13T08:16:52.449Z,13.77
2018-05-13T08:19:19.889Z,14.10
2018-05-13T08:21:48.281Z,13.90
2018-05-13T08:24:17.723Z,14.83
2018-05-13T08:26:45.141Z,12.97
2018-05-13T08:29:12.565Z,14.77
2018-05-13T08:31:40.011Z,14.50
2018-05-13T08:34:07.430Z,12.27
2018-05-13T08:36:34.881Z,13.97
2018-05-13T08:39:06.639Z,14.50
2018-05-13T08:41:36.047Z,13.03
2018-05-13T08:44:03.490Z,13.83
2018-05-13T08:46:30.959Z,16.03
2018-05-13T08:48:58.398Z,12.03
2018-05-13T08:51:25.866Z,14.40
2018-05-13T08:53:53.313Z,14.73
2018-05-13T08:56:22.702Z,12.23
2018-05-13T08:58:50.122Z,13.20
2018-05-13T09:01:18.554Z,12.63
2018-05-13T09:03:45.977Z,12.60
2018-05-13T09:06:13.455Z,14.40
2018-05-13T09:08:41.830Z,14.30
2018-05-13T09:11:09.305Z,13.53
2018-05-13T09:13:36.754Z,14.03
2018-05-13T09:16:05.150Z,15.03
2018-05-13T09:18:34.565Z,15.60
2018-05-13T09:21:01.998Z,14.60
2018-05-13T09:23:29.446Z,15.33
2018-05-13T09:25:56.869Z,14.87
2018-05-13T09:28:24.349Z,15.13
2018-05-13T09:30:51.765Z,18.03
2018-05-13T09:33:19.213Z,16.10
2018-05-13T09:35:46.645Z,16.70
2018-05-13T09:38:14.108Z,14.53
2018-05-13T09:40:43.484Z,17.67
2018-05-13T09:43:11.881Z,18.53
2018-05-13T09:45:44.174Z,19.03
2018-05-13T09:48:15.709Z,19.33
2018-05-13T09:50:44.085Z,20.10
2018-05-13T09:53:12.468Z,22.83
2018-05-13T09:55:44.419Z,20.57
2018-05-13T09:58:11.885Z,22.50
2018-05-13T10:00:39.317Z,18.33
2018-05-13T10:03:10.272Z,19.00
2018-05-13T10:05:49.367Z,20.93
2018-05-13T10:08:19.258Z,20.13
2018-05-13T10:10:47.309Z,19.60
2018-05-13T10:13:17.616Z,22.70
2018-05-13T10:15:47.202Z,21.93
2018-05-13T10:18:16.703Z,19.07
2018-05-13T10:23:50.970Z,21.60
2018-05-13T10:26:18.425Z,20.47
2018-05-13T10:28:49.675Z,19.30
2018-05-13T10:31:17.130Z,17.10
2018-05-13T10:33:45.469Z,16.60
2018-05-13T10:36:12.927Z,19.37
2018-05-13T10:38:43.773Z,17.50
2018-05-13T10:41:25.251Z,16.13
2018-05-13T10:43:54.693Z,17.90
2018-05-13T10:46:22.149Z,17.07
2018-05-13T10:48:49.582Z,16.90
2018-05-13T10:51:17.026Z,15.47
2018-05-13T10:53:44.441Z,16.93
2018-05-13T10:56:11.906Z,17.00
2018-05-13T10:58:39.350Z,17.80
2018-05-13T11:01:06.769Z,17.40
2018-05-13T11:03:35.081Z,18.57
2018-05-13T11:06:04.626Z,15.63
2018-05-13T11:08:32.949Z,18.13
2018-05-13T11:11:00.357Z,16.13
2018-05-13T11:13:28.770Z,18.87
2018-05-13T11:15:56.193Z,19.13
2018-05-13T11:18:23.669Z,18.47
2018-05-13T11:20:53.073Z,20.10
2018-05-13T11:23:20.541Z,19.87
2018-05-13T11:25:47.966Z,17.67
2018-05-13T11:28:15.406Z,18.90
2018-05-13T11:30:42.826Z,20.50
2018-05-13T11:33:11.197Z,18.00
2018-05-13T11:35:38.617Z,18.03
2018-05-13T11:38:06.037Z,18.53
2018-05-13T11:40:34.470Z,17.43
2018-05-13T11:43:03.850Z,17.53
2018-05-13T11:45:31.302Z,16.43
2018-05-13T11:47:59.685Z,17.83
2018-05-13T11:50:27.138Z,16.40
2018-05-13T11:52:54.557Z,16.53
2018-05-13T11:55:22.014Z,17.07
2018-05-13T11:57:49.437Z,18.13
2018-05-13T12:00:16.893Z,18.40
2018-05-13T12:02:44.310Z,17.70
2018-05-13T12:05:11.753Z,19.80
2018-05-13T12:07:39.174Z,18.23
2018-05-13T12:10:07.566Z,18.00
2018-05-13T12:12:34.991Z,18.97
2018-05-13T12:15:02.458Z,18.93
2018-05-13T12:17:29.875Z,16.03
2018-05-13T12:19:57.341Z,19.63
2018-05-13T12:22:24.773Z,18.77
2018-05-13T12:24:53.190Z,22.00
2018-05-13T12:27:20.639Z,21.33
2018-05-13T12:29:48.068Z,16.60
2018-05-13T12:32:15.520Z,15.27
2018-05-13T12:34:42.939Z,18.00
2018-05-13T12:37:11.317Z,18.77
2018-05-13T12:39:38.737Z,17.77
2018-05-13T12:42:06.229Z,15.40
2018-05-13T12:44:33.649Z,20.57
2018-05-13T12:47:01.946Z,19.37
2018-05-13T12:49:29.370Z,18.17
2018-05-13T12:51:56.813Z,20.47
2018-05-13T12:54:24.235Z,18.80
2018-05-13T12:56:51.690Z,19.47
2018-05-13T12:59:19.117Z,19.50
2018-05-13T13:01:47.517Z,18.60
2018-05-13T13:04:14.930Z,21.60
2018-05-13T13:06:43.036Z,18.20
2018-05-13T13:09:10.497Z,19.10
2018-05-13T13:11:37.913Z,24.30
2018-05-13T13:14:05.378Z,17.63
2018-05-13T13:16:32.801Z,19.63
2018-05-13T13:19:00.256Z,25.20
2018-05-13T13:21:27.678Z,17.20
2018-05-13T13:23:55.144Z,19.30
2018-05-13T13:26:22.590Z,16.00
2018-05-13T13:28:50.046Z,15.40
2018-05-13T13:31:17.474Z,13.60
2018-05-13T13:33:45.230Z,15.43
2018-05-13T13:36:12.650Z,25.50
2018-05-13T13:38:40.093Z,13.93
2018-05-13T13:41:07.514Z,16.40
2018-05-13T13:43:34.966Z,14.83
2018-05-13T13:46:02.394Z,13.20
2018-05-13T13:48:29.829Z,10.87
2018-05-13T13:50:57.254Z,11.63
2018-05-13T13:53:24.727Z,11.60
2018-05-13T13:55:52.125Z,9.57
2018-05-13T13:58:19.565Z,9.17
2018-05-13T14:00:46.981Z,11.80
2018-05-13T14:03:14.416Z,10.07
2018-05-13T14:05:41.894Z,12.87
2018-05-13T14:08:09.337Z,10.53
2018-05-13T14:10:36.782Z,10.17
2018-05-13T14:13:07.721Z,8.50
2018-05-13T14:15:37.152Z,10.20
2018-05-13T14:18:08.183Z,8.53
2018-05-13T14:20:36.684Z,14.23
2018-05-13T14:23:04.013Z,8.90
2018-05-13T14:25:31.465Z,12.73
2018-05-13T14:27:58.877Z,9.33
2018-05-13T14:30:26.322Z,8.73
2018-05-13T14:32:53.817Z,9.43
2018-05-13T14:35:21.205Z,7.60
2018-05-13T14:37:48.656Z,9.83
2018-05-13T14:40:17.056Z,9.17
2018-05-13T14:42:44.486Z,16.50
2018-05-13T14:45:11.956Z,10.50
2018-05-13T14:47:39.428Z,8.03
2018-05-13T14:50:07.814Z,8.77
2018-05-13T14:52:35.271Z,7.00
2018-05-13T14:55:02.671Z,11.83
2018-05-13T14:57:30.115Z,7.70
2018-05-13T14:59:57.545Z,9.03
2018-05-13T15:02:24.985Z,12.07
2018-05-13T15:04:52.469Z,8.60
2018-05-13T15:07:30.722Z,9.53
2018-05-13T15:09:58.129Z,7.27
2018-05-13T15:12:26.571Z,10.47
2018-05-13T15:14:53.988Z,10.83
2018-05-13T15:17:21.434Z,6.53
2018-05-13T15:19:48.849Z,8.63
2018-05-13T15:22:17.191Z,9.27
2018-05-13T15:24:44.605Z,7.80
2018-05-13T15:27:12.060Z,8.50
2018-05-13T15:29:39.498Z,8.30
2018-05-13T15:32:06.913Z,8.40
2018-05-13T15:34:34.349Z,11.43
2018-05-13T15:37:01.763Z,8.37
2018-05-13T15:39:29.201Z,11.00
2018-05-13T15:41:56.617Z,8.17
2018-05-13T15:44:30.742Z,8.20
2018-05-13T15:46:59.138Z,8.83
2018-05-13T15:49:28.470Z,8.30
2018-05-13T15:51:55.883Z,7.73
2018-05-13T15:54:23.343Z,12.47
2018-05-13T15:56:51.668Z,7.57
2018-05-13T15:59:19.121Z,7.47
2018-05-13T16:01:48.475Z,9.60
2018-05-13T16:04:15.929Z,7.70
2018-05-13T16:06:43.355Z,10.37
2018-05-13T16:09:10.814Z,13.90
2018-05-13T16:11:40.140Z,7.93
2018-05-13T16:14:07.558Z,10.43
2018-05-13T16:16:35.910Z,11.97
2018-05-13T16:19:03.339Z,9.60
2018-05-13T16:21:30.786Z,8.70
2018-05-13T16:23:59.166Z,7.30
2018-05-13T16:26:26.620Z,10.10
2018-05-13T16:28:54.038Z,13.47
2018-05-13T16:31:22.405Z,13.10
2018-05-13T16:33:49.842Z,13.23
2018-05-13T16:36:17.282Z,14.00
2018-05-13T16:38:44.706Z,6.77
2018-05-13T16:41:12.142Z,9.17
2018-05-13T16:43:39.565Z,10.67
2018-05-13T16:46:07.000Z,6.70
2018-05-13T16:48:34.410Z,7.70
2018-05-13T16:51:01.862Z,11.53
2018-05-13T16:53:29.282Z,7.87
2018-05-13T16:55:56.721Z,11.00
2018-05-13T16:58:24.133Z,8.20
2018-05-13T17:00:51.568Z,8.70
2018-05-13T17:03:19.929Z,11.53
2018-05-13T17:05:47.365Z,6.70
2018-05-13T17:08:14.794Z,15.20
2018-05-13T17:10:44.127Z,10.10
2018-05-13T17:13:11.569Z,8.87
2018-05-13T17:15:39.036Z,11.33
2018-05-13T17:18:06.432Z,7.20
2018-05-13T17:20:33.839Z,7.03
2018-05-13T17:23:01.269Z,9.50
2018-05-13T17:25:28.689Z,10.83
2018-05-13T17:27:56.130Z,8.33
2018-05-13T17:30:24.445Z,6.23
2018-05-13T17:32:51.889Z,9.03
2018-05-13T17:35:19.302Z,8.07
2018-05-13T17:37:46.750Z,9.30
2018-05-13T17:40:14.157Z,11.93
2018-05-13T17:42:41.593Z,8.77
2018-05-13T17:45:09.006Z,8.67
2018-05-13T17:47:37.436Z,7.20
2018-05-13T17:50:04.868Z,9.27
2018-05-13T17:52:32.356Z,10.17
2018-05-13T17:54:59.776Z,5.90
2018-05-13T17:57:29.112Z,9.10
2018-05-13T17:59:57.534Z,14.53
2018-05-13T18:02:24.962Z,9.83
2018-05-13T18:04:52.431Z,7.40
2018-05-13T18:07:19.805Z,7.93
2018-05-13T18:09:47.246Z,11.80
2018-05-13T18:12:18.213Z,7.13
2018-05-13T18:14:45.661Z,6.70
2018-05-13T18:17:13.086Z,9.00
2018-05-13T18:19:40.526Z,10.60
2018-05-13T18:22:07.951Z,9.10
2018-05-13T18:24:35.406Z,7.60
2018-05-13T18:27:03.794Z,5.90
2018-05-13T18:29:32.322Z,4.90
2018-05-13T18:32:01.325Z,7.20
2018-05-13T18:34:28.858Z,6.63
2018-05-13T18:37:19.374Z,5.90
2018-05-13T18:39:55.012Z,6.93
2018-05-13T18:42:30.120Z,8.37
2018-05-13T18:44:59.539Z,13.60
2018-05-13T18:47:27.367Z,6.27
2018-05-13T18:49:54.874Z,10.70
2018-05-13T18:52:22.282Z,9.23
2018-05-13T18:54:49.716Z,10.23
2018-05-13T18:57:17.162Z,5.20
2018-05-13T18:59:51.330Z,11.03
2018-05-13T19:02:22.129Z,6.07
2018-05-13T19:04:50.526Z,8.33
2018-05-13T19:07:19.278Z,11.47
2018-05-13T19:09:46.690Z,8.80
2018-05-13T19:12:14.174Z,8.03
2018-05-13T19:14:42.511Z,7.50
2018-05-13T19:17:10.910Z,7.53
2018-05-13T19:19:38.329Z,7.07
2018-05-13T19:22:26.832Z,6.67
2018-05-13T19:24:55.191Z,10.57
2018-05-13T19:27:24.622Z,7.83
2018-05-13T19:29:52.049Z,10.77
2018-05-13T19:32:20.438Z,11.70
2018-05-13T19:34:47.862Z,9.17
2018-05-13T19:37:15.726Z,8.10
2018-05-13T19:39:43.134Z,6.97
2018-05-13T19:42:14.617Z,7.00
2018-05-13T19:44:44.795Z,8.83
2018-05-13T19:47:14.630Z,12.50
2018-05-13T19:49:43.102Z,10.43
2018-05-13T19:52:10.645Z,10.00
2018-05-13T19:54:40.039Z,7.47
2018-05-13T19:57:08.611Z,7.07
2018-05-13T19:59:37.006Z,8.70
2018-05-13T20:02:04.436Z,11.32
2018-05-13T20:04:31.923Z,9.70
2018-05-13T20:06:59.355Z,9.60
2018-05-13T20:09:26.809Z,9.10
2018-05-13T20:11:54.241Z,11.60
2018-05-13T20:14:21.683Z,10.27
2018-05-13T20:16:49.098Z,9.13
2018-05-13T20:19:16.551Z,16.23
2018-05-13T20:21:44.027Z,8.90
2018-05-13T20:24:11.481Z,5.70
2018-05-13T20:26:43.618Z,13.70
2018-05-13T20:29:12.056Z,8.40
2018-05-13T20:31:39.476Z,8.13
2018-05-13T20:34:06.932Z,10.30
2018-05-13T20:36:34.450Z,8.40
2018-05-13T20:39:01.889Z,8.60
2018-05-13T20:41:29.315Z,8.33
2018-05-13T20:43:56.755Z,8.67
2018-05-13T20:46:25.099Z,5.83
2018-05-13T20:48:52.569Z,10.70
2018-05-13T20:51:20.022Z,14.80
2018-05-13T20:53:47.419Z,6.73
2018-05-13T20:56:14.854Z,9.20
2018-05-13T20:58:42.303Z,9.17
2018-05-13T21:01:09.770Z,10.53
2018-05-13T21:03:37.204Z,7.70
2018-05-13T21:06:04.679Z,7.53
2018-05-13T21:08:33.051Z,14.60
2018-05-13T21:11:01.448Z,8.83
2018-05-13T21:13:28.872Z,11.33
2018-05-13T21:15:56.333Z,16.17
2018-05-13T21:18:23.763Z,10.27
2018-05-13T21:20:51.207Z,9.20
2018-05-13T21:23:19.632Z,8.20
2018-05-13T21:25:47.076Z,14.33
2018-05-13T21:28:14.494Z,7.93
2018-05-13T21:30:41.935Z,8.80
2018-05-13T21:33:09.363Z,14.10
2018-05-13T21:35:40.635Z,9.67
2018-05-13T21:38:08.779Z,8.70
2018-05-13T21:40:36.239Z,11.00
2018-05-13T21:43:03.654Z,9.43
2018-05-13T21:45:31.152Z,14.83
2018-05-13T21:47:58.582Z,6.33
2018-05-13T21:50:26.058Z,12.50
2018-05-13T21:52:53.539Z,11.67
2018-05-13T21:55:20.964Z,7.33
2018-05-13T21:57:48.408Z,8.90
2018-05-13T22:00:15.824Z,7.10
2018-05-13T22:02:43.266Z,12.67
2018-05-13T22:05:10.692Z,9.67
2018-05-13T22:07:38.134Z,6.30
2018-05-13T22:10:05.548Z,7.77
2018-05-13T22:12:33.002Z,10.97
2018-05-13T22:15:00.420Z,9.03
2018-05-13T22:17:27.861Z,10.60
2018-05-13T22:19:55.294Z,10.53
2018-05-13T22:22:22.745Z,14.90
2018-05-13T22:24:51.039Z,7.80
2018-05-13T22:27:18.475Z,7.10
2018-05-13T22:29:46.889Z,13.40
2018-05-13T22:32:15.321Z,10.73
2018-05-13T22:34:43.737Z,10.43
2018-05-13T22:37:15.594Z,7.87
2018-05-13T22:42:41.916Z,13.93
2018-05-13T22:45:20.342Z,7.90
2018-05-13T22:47:48.043Z,9.53
2018-05-13T22:50:20.195Z,8.03
2018-05-13T22:52:48.750Z,12.40
2018-05-13T22:55:20.214Z,10.03
2018-05-13T22:57:47.828Z,15.20
2018-05-13T23:00:15.344Z,9.33
2018-05-13T23:02:42.996Z,12.00
2018-05-13T23:05:11.517Z,9.80
2018-05-13T23:07:38.979Z,13.43
